Time,TemperatureF,DewpointF,PressureIn,WindDirection,WindDirectionDegrees,WindSpeedMPH,WindSpeedGustMPH,Humidity,HourlyPrecipIn,Conditions,Clouds,dailyrainin,SolarRadiationWatts/m^2,SoftwareType,DateUTC
2013-05-09 00:01:00,49.7,48.0,30.17,North,355,3.0,3.0,94,0.00,,,0.00,0,Wunderground v.1.15,2013-05-09 07:01:00,
2013-05-09 00:10:00,49.7,48.0,30.17,WNW,295,2.0,4.0,94,0.00,,,0.00,0,Wunderground v.1.15,2013-05-09 07:10:00,
2013-05-09 00:20:00,49.7,48.0,30.17,NW,318,3.0,3.0,94,0.00,,,0.00,0,Wunderground v.1.15,2013-05-09 07:20:00,
2013-05-09 00:30:00,49.8,48.1,30.17,NW,323,4.0,4.0,94,0.00,,,0.00,0,Wunderground v.1.15,2013-05-09 07:30:00,
2013-05-09 00:40:00,49.8,48.1,30.17,NW,312,3.0,6.0,94,0.00,,,0.00,0,Wunderground v.1.15,2013-05-09 07:40:00,
2013-05-09 00:50:00,49.8,48.1,30.17,WNW,298,2.0,6.0,94,0.00,,,0.00,0,Wunderground v.1.15,2013-05-09 07:50:00,
2013-05-09 01:00:00,49.8,48.1,30.17,NW,310,4.0,4.0,94,0.00,,,0.00,0,Wunderground v.1.15,2013-05-09 08:00:00,
2013-05-09 01:10:00,49.8,48.1,30.17,WNW,286,4.0,4.0,94,0.00,,,0.00,0,Wunderground v.1.15,2013-05-09 08:10:00,
2013-05-09 01:20:00,49.7,48.0,30.17,WNW,290,1.0,2.0,94,0.00,,,0.00,0,Wunderground v.1.15,2013-05-09 08:20:00,
2013-05-09 01:30:00,49.7,48.0,30.16,NW,312,2.0,5.0,94,0.00,,,0.00,0,Wunderground v.1.15,2013-05-09 08:30:00,
2013-05-09 01:40:00,49.7,48.0,30.16,WNW,298,3.0,3.0,94,0.00,,,0.00,0,Wunderground v.1.15,2013-05-09 08:40:00,
2013-05-09 01:50:00,49.6,47.9,30.16,WNW,290,2.0,2.0,94,0.00,,,0.00,0,Wunderground v.1.15,2013-05-09 08:50:00,
2013-05-09 02:00:00,49.6,47.9,30.16,WNW,302,2.0,2.0,94,0.00,,,0.00,0,Wunderground v.1.15,2013-05-09 09:00:00,
2013-05-09 02:10:00,49.6,47.9,30.15,NW,317,3.0,3.0,94,0.00,,,0.00,0,Wunderground v.1.15,2013-05-09 09:10:00,
2013-05-09 02:20:00,49.5,47.8,30.16,NW,315,3.0,3.0,94,0.00,,,0.00,0,Wunderground v.1.15,2013-05-09 09:20:00,
2013-05-09 02:30:00,49.5,47.8,30.16,North,360,2.0,2.0,94,0.00,,,0.00,0,Wunderground v.1.15,2013-05-09 09:30:00,
2013-05-09 02:40:00,49.5,47.6,30.15,NW,307,2.0,5.0,93,0.00,,,0.00,0,Wunderground v.1.15,2013-05-09 09:40:00,
2013-05-09 02:50:00,49.5,47.6,30.15,NNW,327,5.0,5.0,93,0.00,,,0.00,0,Wunderground v.1.15,2013-05-09 09:50:00,
2013-05-09 03:00:00,49.5,47.6,30.15,NW,313,2.0,2.0,93,0.00,,,0.00,0,Wunderground v.1.15,2013-05-09 10:00:00,
2013-05-09 03:10:00,49.5,47.6,30.15,WNW,298,2.0,2.0,93,0.00,,,0.00,0,Wunderground v.1.15,2013-05-09 10:10:00,
2013-05-09 03:20:00,49.4,47.5,30.15,NW,310,2.0,2.0,93,0.00,,,0.00,0,Wunderground v.1.15,2013-05-09 10:20:00,
2013-05-09 03:30:00,49.4,47.7,30.15,WNW,294,0.0,2.0,94,0.00,,,0.00,0,Wunderground v.1.15,2013-05-09 10:30:00,
2013-05-09 03:40:00,49.4,47.7,30.15,NW,321,0.0,0.0,94,0.00,,,0.00,0,Wunderground v.1.15,2013-05-09 10:40:00,
2013-05-09 03:50:00,49.4,47.7,30.15,NW,318,2.0,5.0,94,0.00,,,0.00,0,Wunderground v.1.15,2013-05-09 10:50:00,
2013-05-09 04:00:00,49.4,47.7,30.14,WNW,300,1.0,3.0,94,0.00,,,0.00,0,Wunderground v.1.15,2013-05-09 11:00:00,
2013-05-09 04:10:00,49.4,47.7,30.15,NW,304,2.0,3.0,94,0.00,,,0.00,0,Wunderground v.1.15,2013-05-09 11:10:00,
2013-05-09 04:20:00,49.4,47.7,30.14,NW,306,2.0,3.0,94,0.00,,,0.00,0,Wunderground v.1.15,2013-05-09 11:20:00,
2013-05-09 04:30:00,49.4,47.7,30.14,WNW,298,1.0,4.0,94,0.00,,,0.00,0,Wunderground v.1.15,2013-05-09 11:30:00,
2013-05-09 04:40:00,49.4,47.7,30.14,WNW,302,3.0,3.0,94,0.00,,,0.00,0,Wunderground v.1.15,2013-05-09 11:40:00,
2013-05-09 04:50:00,49.4,47.7,30.14,NW,308,1.0,1.0,94,0.00,,,0.00,0,Wunderground v.1.15,2013-05-09 11:50:00,
2013-05-09 05:00:00,49.4,47.7,30.14,WNW,300,1.0,5.0,94,0.00,,,0.00,0,Wunderground v.1.15,2013-05-09 12:00:00,
2013-05-09 05:10:00,49.3,47.6,30.14,WNW,302,4.0,4.0,94,0.00,,,0.00,0,Wunderground v.1.15,2013-05-09 12:10:00,
2013-05-09 05:20:00,49.3,47.6,30.14,NW,311,1.0,1.0,94,0.00,,,0.00,0,Wunderground v.1.15,2013-05-09 12:20:00,
2013-05-09 05:30:00,49.2,47.5,30.14,WNW,296,1.0,1.0,94,0.00,,,0.00,0,Wunderground v.1.15,2013-05-09 12:30:00,
2013-05-09 05:40:00,49.2,47.5,30.14,North,5,3.0,4.0,94,0.00,,,0.00,0,Wunderground v.1.15,2013-05-09 12:40:00,
2013-05-09 05:50:00,49.1,47.4,30.14,North,355,2.0,6.0,94,0.00,,,0.00,0,Wunderground v.1.15,2013-05-09 12:50:00,
2013-05-09 06:00:00,49.0,47.3,30.14,West,280,4.0,4.0,94,0.00,,,0.00,0,Wunderground v.1.15,2013-05-09 13:00:00,
2013-05-09 06:10:00,48.9,47.2,30.14,WNW,296,5.0,5.0,94,0.00,,,0.00,0,Wunderground v.1.15,2013-05-09 13:10:00,
2013-05-09 06:20:00,48.8,47.2,30.15,NW,323,3.0,8.0,94,0.00,,,0.00,0,Wunderground v.1.15,2013-05-09 13:20:00,
2013-05-09 06:30:00,48.6,47.0,30.15,WNW,293,4.0,4.0,94,0.00,,,0.00,5,Wunderground v.1.15,2013-05-09 13:30:00,
2013-05-09 06:40:00,48.6,47.0,30.15,North,355,1.0,4.0,94,0.00,,,0.00,11,Wunderground v.1.15,2013-05-09 13:40:00,
2013-05-09 06:50:00,48.6,47.0,30.16,NNW,336,2.0,4.0,94,0.00,,,0.00,14,Wunderground v.1.15,2013-05-09 13:50:00,
2013-05-09 07:00:00,48.6,47.0,30.16,North,355,1.0,1.0,94,0.00,,,0.00,18,Wunderground v.1.15,2013-05-09 14:00:00,
2013-05-09 07:10:00,48.7,47.3,30.16,NW,313,1.0,1.0,95,0.00,,,0.00,23,Wunderground v.1.15,2013-05-09 14:10:00,
2013-05-09 07:20:00,48.8,47.4,30.16,NW,305,1.0,1.0,95,0.00,,,0.00,33,Wunderground v.1.15,2013-05-09 14:20:00,
2013-05-09 07:30:00,48.8,47.4,30.16,NNW,346,1.0,4.0,95,0.00,,,0.00,40,Wunderground v.1.15,2013-05-09 14:30:00,
2013-05-09 07:40:00,48.7,47.3,30.16,WNW,298,1.0,1.0,95,0.00,,,0.00,47,Wunderground v.1.15,2013-05-09 14:40:00,
2013-05-09 07:50:00,48.7,47.3,30.17,NW,318,2.0,2.0,95,0.00,,,0.00,54,Wunderground v.1.15,2013-05-09 14:50:00,
2013-05-09 08:00:00,48.9,47.5,30.17,WNW,301,1.0,1.0,95,0.00,,,0.00,62,Wunderground v.1.15,2013-05-09 15:00:00,
2013-05-09 08:10:00,48.8,47.4,30.17,WNW,290,1.0,7.0,95,0.00,,,0.00,81,Wunderground v.1.15,2013-05-09 15:10:00,
2013-05-09 08:20:00,49.0,47.6,30.17,WNW,290,2.0,2.0,95,0.00,,,0.00,90,Wunderground v.1.15,2013-05-09 15:20:00,
2013-05-09 08:30:00,49.0,47.6,30.18,NNW,327,2.0,2.0,95,0.00,,,0.00,100,Wunderground v.1.15,2013-05-09 15:30:00,
2013-05-09 08:40:00,49.2,47.5,30.18,NNW,335,5.0,9.0,94,0.00,,,0.00,107,Wunderground v.1.15,2013-05-09 15:40:00,
2013-05-09 08:50:00,49.3,47.6,30.18,WNW,286,4.0,4.0,94,0.00,,,0.00,116,Wunderground v.1.15,2013-05-09 15:50:00,
2013-05-09 09:00:00,49.4,47.7,30.19,NNW,338,4.0,5.0,94,0.00,,,0.00,128,Wunderground v.1.15,2013-05-09 16:00:00,
2013-05-09 09:10:00,49.7,48.0,30.18,NE,49,3.0,7.0,94,0.00,,,0.00,127,Wunderground v.1.15,2013-05-09 16:10:00,
2013-05-09 09:20:00,49.7,48.0,30.19,North,355,6.0,7.0,94,0.00,,,0.00,141,Wunderground v.1.15,2013-05-09 16:20:00,
2013-05-09 09:30:00,49.8,47.9,30.19,NNW,348,5.0,6.0,93,0.00,,,0.00,160,Wunderground v.1.15,2013-05-09 16:30:00,
2013-05-09 09:40:00,49.8,47.9,30.19,NW,317,3.0,5.0,93,0.00,,,0.00,181,Wunderground v.1.15,2013-05-09 16:40:00,
2013-05-09 09:50:00,50.1,48.2,30.19,NNE,17,2.0,2.0,93,0.00,,,0.00,190,Wunderground v.1.15,2013-05-09 16:50:00,
2013-05-09 10:00:00,50.4,48.5,30.19,NW,317,5.0,5.0,93,0.00,,,0.00,199,Wunderground v.1.15,2013-05-09 17:00:00,
2013-05-09 10:10:00,50.6,48.4,30.19,North,355,6.0,6.0,92,0.00,,,0.00,193,Wunderground v.1.15,2013-05-09 17:10:00,
2013-05-09 10:20:00,50.7,48.5,30.19,West,281,4.0,4.0,92,0.00,,,0.00,223,Wunderground v.1.15,2013-05-09 17:20:00,
2013-05-09 10:30:00,51.0,48.8,30.19,West,279,4.0,4.0,92,0.00,,,0.00,246,Wunderground v.1.15,2013-05-09 17:30:00,
2013-05-09 10:40:00,50.9,48.4,30.19,WNW,298,6.0,6.0,91,0.00,,,0.00,246,Wunderground v.1.15,2013-05-09 17:40:00,
2013-05-09 10:50:00,51.1,48.6,30.19,North,355,4.0,7.0,91,0.00,,,0.00,294,Wunderground v.1.15,2013-05-09 17:50:00,
2013-05-09 11:00:00,51.2,48.7,30.19,North,5,5.0,7.0,91,0.00,,,0.00,399,Wunderground v.1.15,2013-05-09 18:00:00,
2013-05-09 11:10:00,51.9,49.1,30.19,North,355,4.0,4.0,90,0.00,,,0.00,450,Wunderground v.1.15,2013-05-09 18:10:00,
2013-05-09 11:20:00,52.3,48.9,30.19,North,360,3.0,5.0,88,0.00,,,0.00,541,Wunderground v.1.15,2013-05-09 18:20:00,
2013-05-09 11:30:00,52.9,49.1,30.19,North,349,5.0,5.0,87,0.00,,,0.00,693,Wunderground v.1.15,2013-05-09 18:30:00,
2013-05-09 11:40:00,53.1,49.0,30.19,North,349,7.0,10.0,86,0.00,,,0.00,606,Wunderground v.1.15,2013-05-09 18:40:00,
2013-05-09 11:51:00,53.7,49.6,30.19,NNW,333,6.0,10.0,86,0.00,,,0.00,933,Wunderground v.1.15,2013-05-09 18:51:00,
2013-05-09 12:00:00,54.2,49.8,30.19,North,5,6.0,6.0,85,0.00,,,0.00,954,Wunderground v.1.15,2013-05-09 19:00:00,
2013-05-09 12:10:00,54.9,49.8,30.18,North,10,5.0,5.0,83,0.00,,,0.00,925,Wunderground v.1.15,2013-05-09 19:10:00,
2013-05-09 12:20:00,54.8,49.1,30.18,NE,35,8.0,9.0,81,0.00,,,0.00,914,Wunderground v.1.15,2013-05-09 19:20:00,
2013-05-09 12:30:00,54.9,49.5,30.18,NW,308,8.0,8.0,82,0.00,,,0.00,928,Wunderground v.1.15,2013-05-09 19:30:00,
2013-05-09 12:40:00,55.6,49.9,30.18,NE,38,5.0,8.0,81,0.00,,,0.00,932,Wunderground v.1.15,2013-05-09 19:40:00,
2013-05-09 12:50:00,55.9,50.2,30.18,NNE,33,7.0,9.0,81,0.00,,,0.00,940,Wunderground v.1.15,2013-05-09 19:50:00,
2013-05-09 13:00:00,56.4,49.6,30.18,NNW,333,6.0,6.0,78,0.00,,,0.00,939,Wunderground v.1.15,2013-05-09 20:00:00,
2013-05-09 13:11:00,57.2,50.1,30.18,North,349,6.0,7.0,77,0.00,,,0.00,940,Wunderground v.1.15,2013-05-09 20:11:00,
2013-05-09 13:20:00,57.4,49.9,30.18,NNE,26,7.0,11.0,76,0.00,,,0.00,947,Wunderground v.1.15,2013-05-09 20:20:00,
2013-05-09 13:30:00,57.3,50.1,30.18,NNE,22,9.0,12.0,77,0.00,,,0.00,942,Wunderground v.1.15,2013-05-09 20:30:00,
2013-05-09 13:40:00,57.2,49.7,30.18,North,360,8.0,8.0,76,0.00,,,0.00,946,Wunderground v.1.15,2013-05-09 20:40:00,
2013-05-09 13:50:00,57.6,49.7,30.17,NNE,20,9.0,10.0,75,0.00,,,0.00,940,Wunderground v.1.15,2013-05-09 20:50:00,
2013-05-09 14:00:00,57.0,49.5,30.18,NNE,23,10.0,12.0,76,0.00,,,0.00,933,Wunderground v.1.15,2013-05-09 21:00:00,
2013-05-09 14:10:00,57.0,49.5,30.18,North,355,9.0,14.0,76,0.00,,,0.00,930,Wunderground v.1.15,2013-05-09 21:10:00,
2013-05-09 14:20:00,56.9,49.8,30.18,NNE,30,11.0,11.0,77,0.00,,,0.00,921,Wunderground v.1.15,2013-05-09 21:20:00,
2013-05-09 14:30:00,56.5,49.7,30.18,NNE,12,11.0,11.0,78,0.00,,,0.00,911,Wunderground v.1.15,2013-05-09 21:30:00,
2013-05-09 14:40:00,56.7,49.6,30.17,NNW,344,10.0,10.0,77,0.00,,,0.00,900,Wunderground v.1.15,2013-05-09 21:40:00,
2013-05-09 14:50:00,56.2,49.4,30.18,NNE,29,11.0,16.0,78,0.00,,,0.00,886,Wunderground v.1.15,2013-05-09 21:50:00,
2013-05-09 15:00:00,55.9,49.5,30.17,NNE,23,12.0,12.0,79,0.00,,,0.00,872,Wunderground v.1.15,2013-05-09 22:00:00,
2013-05-09 15:10:00,56.2,49.8,30.17,NNE,32,9.0,11.0,79,0.00,,,0.00,854,Wunderground v.1.15,2013-05-09 22:10:00,
2013-05-09 15:20:00,56.3,49.5,30.17,NNE,30,11.0,13.0,78,0.00,,,0.00,837,Wunderground v.1.15,2013-05-09 22:20:00,
2013-05-09 15:35:00,56.2,49.8,30.16,North,355,11.0,15.0,79,0.00,,,0.00,809,Wunderground v.1.15,2013-05-09 22:35:00,
2013-05-09 15:40:00,56.3,49.9,30.16,NNW,344,11.0,11.0,79,0.00,,,0.00,802,Wunderground v.1.15,2013-05-09 22:40:00,
2013-05-09 15:50:00,56.2,49.4,30.15,NW,306,10.0,10.0,78,0.00,,,0.00,780,Wunderground v.1.15,2013-05-09 22:50:00,
2013-05-09 16:00:00,56.3,49.5,30.15,NNE,21,10.0,10.0,78,0.00,,,0.00,763,Wunderground v.1.15,2013-05-09 23:00:00,
2013-05-09 16:10:00,55.7,49.3,30.15,North,9,12.0,18.0,79,0.00,,,0.00,735,Wunderground v.1.15,2013-05-09 23:10:00,
2013-05-09 16:20:00,55.8,49.7,30.15,North,360,10.0,12.0,80,0.00,,,0.00,714,Wunderground v.1.15,2013-05-09 23:20:00,
2013-05-09 16:30:00,55.9,49.5,30.14,NNW,346,10.0,13.0,79,0.00,,,0.00,689,Wunderground v.1.15,2013-05-09 23:30:00,
2013-05-09 16:40:00,55.8,49.4,30.14,NNE,32,9.0,9.0,79,0.00,,,0.00,659,Wunderground v.1.15,2013-05-09 23:40:00,
2013-05-09 16:51:00,56.0,49.6,30.14,NNE,13,9.0,11.0,79,0.00,,,0.00,629,Wunderground v.1.15,2013-05-09 23:51:00,
2013-05-09 17:00:00,55.8,49.7,30.14,North,355,10.0,10.0,80,0.00,,,0.00,610,Wunderground v.1.15,2013-05-10 00:00:00,
2013-05-09 17:10:00,56.0,49.6,30.14,North,10,8.0,8.0,79,0.00,,,0.00,584,Wunderground v.1.15,2013-05-10 00:10:00,
2013-05-09 17:20:00,55.6,49.5,30.14,NNE,15,10.0,11.0,80,0.00,,,0.00,445,Wunderground v.1.15,2013-05-10 00:20:00,
2013-05-09 17:30:00,55.3,49.2,30.14,North,5,9.0,9.0,80,0.00,,,0.00,506,Wunderground v.1.15,2013-05-10 00:30:00,
2013-05-09 17:40:00,55.0,48.9,30.14,NNW,331,8.0,8.0,80,0.00,,,0.00,461,Wunderground v.1.15,2013-05-10 00:40:00,
2013-05-09 17:50:00,55.2,49.1,30.14,NNE,18,8.0,12.0,80,0.00,,,0.00,438,Wunderground v.1.15,2013-05-10 00:50:00,
2013-05-09 18:00:00,55.2,49.5,30.14,NNE,26,8.0,8.0,81,0.00,,,0.00,399,Wunderground v.1.15,2013-05-10 01:00:00,
2013-05-09 18:10:00,55.3,49.6,30.14,North,10,8.0,8.0,81,0.00,,,0.00,366,Wunderground v.1.15,2013-05-10 01:10:00,
2013-05-09 18:20:00,55.0,49.6,30.14,North,5,8.0,8.0,82,0.00,,,0.00,330,Wunderground v.1.15,2013-05-10 01:20:00,
2013-05-09 18:30:00,55.0,49.9,30.15,NE,39,7.0,7.0,83,0.00,,,0.00,295,Wunderground v.1.15,2013-05-10 01:30:00,
2013-05-09 18:40:00,54.7,49.3,30.15,NE,39,9.0,10.0,82,0.00,,,0.00,255,Wunderground v.1.15,2013-05-10 01:40:00,
2013-05-09 18:50:00,54.2,49.1,30.15,NNE,19,8.0,11.0,83,0.00,,,0.00,190,Wunderground v.1.15,2013-05-10 01:50:00,
2013-05-09 19:00:00,53.9,49.2,30.15,NE,37,7.0,7.0,84,0.00,,,0.00,190,Wunderground v.1.15,2013-05-10 02:00:00,
2013-05-09 19:10:00,53.5,49.1,30.15,NNE,27,6.0,9.0,85,0.00,,,0.00,155,Wunderground v.1.15,2013-05-10 02:10:00,
2013-05-09 19:20:00,53.0,48.9,30.16,NNE,19,6.0,6.0,86,0.00,,,0.00,62,Wunderground v.1.15,2013-05-10 02:20:00,
2013-05-09 19:30:00,52.6,48.8,30.16,WNW,303,6.0,6.0,87,0.00,,,0.00,58,Wunderground v.1.15,2013-05-10 02:30:00,
2013-05-09 19:40:00,52.2,48.8,30.17,NNE,18,7.0,10.0,88,0.00,,,0.00,19,Wunderground v.1.15,2013-05-10 02:40:00,
2013-05-09 19:50:00,51.6,48.2,30.17,NNE,16,9.0,12.0,88,0.00,,,0.00,11,Wunderground v.1.15,2013-05-10 02:50:00,
2013-05-09 20:00:00,51.0,47.9,30.18,NNW,336,8.0,9.0,89,0.00,,,0.00,0,Wunderground v.1.15,2013-05-10 03:00:00,
2013-05-09 20:10:00,50.8,48.0,30.18,NNE,24,7.0,7.0,90,0.00,,,0.00,0,Wunderground v.1.15,2013-05-10 03:10:00,
2013-05-09 20:20:00,50.3,47.5,30.18,North,351,8.0,11.0,90,0.00,,,0.00,0,Wunderground v.1.15,2013-05-10 03:20:00,
2013-05-09 20:31:00,50.1,47.6,30.18,NNW,348,7.0,10.0,91,0.00,,,0.00,0,Wunderground v.1.15,2013-05-10 03:31:00,
2013-05-09 20:40:00,50.0,47.5,30.18,NNE,28,8.0,8.0,91,0.00,,,0.00,0,Wunderground v.1.15,2013-05-10 03:40:00,
2013-05-09 20:50:00,49.9,47.7,30.19,NNE,18,8.0,10.0,92,0.00,,,0.00,0,Wunderground v.1.15,2013-05-10 03:50:00,
2013-05-09 21:00:00,49.8,47.6,30.19,NNW,339,8.0,8.0,92,0.00,,,0.00,0,Wunderground v.1.15,2013-05-10 04:00:00,
2013-05-09 21:05:00,49.7,47.5,30.19,NNE,12,8.0,8.0,92,0.00,,,0.00,0,Wunderground v.1.15,2013-05-10 04:05:00,
2013-05-09 21:10:00,49.7,47.8,30.19,NNE,15,6.0,6.0,93,0.00,,,0.00,0,Wunderground v.1.15,2013-05-10 04:10:00,
2013-05-09 21:20:00,49.8,47.9,30.20,NNE,14,4.0,6.0,93,0.00,,,0.00,0,Wunderground v.1.15,2013-05-10 04:20:00,
2013-05-09 21:30:00,49.9,48.0,30.19,NW,311,4.0,4.0,93,0.00,,,0.00,0,Wunderground v.1.15,2013-05-10 04:30:00,
2013-05-09 21:40:00,50.0,48.1,30.20,NNW,345,4.0,4.0,93,0.00,,,0.00,0,Wunderground v.1.15,2013-05-10 04:40:00,
2013-05-09 21:45:00,50.0,48.1,30.20,NW,309,4.0,4.0,93,0.00,,,0.00,0,Wunderground v.1.15,2013-05-10 04:45:00,
2013-05-09 21:50:00,50.0,48.1,30.20,WNW,295,3.0,6.0,93,0.00,,,0.00,0,Wunderground v.1.15,2013-05-10 04:50:00,
2013-05-09 22:00:00,50.0,48.1,30.21,NW,310,2.0,5.0,93,0.00,,,0.00,0,Wunderground v.1.15,2013-05-10 05:00:00,
2013-05-09 22:10:00,50.0,48.1,30.21,NW,322,4.0,8.0,93,0.00,,,0.00,0,Wunderground v.1.15,2013-05-10 05:10:00,
2013-05-09 22:21:00,49.8,47.9,30.21,WNW,300,4.0,4.0,93,0.00,,,0.00,0,Wunderground v.1.15,2013-05-10 05:21:00,
2013-05-09 22:30:00,49.6,47.7,30.20,NNW,327,5.0,8.0,93,0.00,,,0.00,0,Wunderground v.1.15,2013-05-10 05:30:00,
2013-05-09 22:45:00,49.5,47.6,30.21,NNW,348,5.0,9.0,93,0.00,,,0.00,0,Wunderground v.1.15,2013-05-10 05:45:00,
2013-05-09 22:50:00,49.5,47.6,30.21,North,5,6.0,9.0,93,0.00,,,0.00,0,Wunderground v.1.15,2013-05-10 05:50:00,
2013-05-09 23:00:00,49.4,47.5,30.21,NW,308,6.0,6.0,93,0.00,,,0.00,0,Wunderground v.1.15,2013-05-10 06:00:00,
2013-05-09 23:10:00,49.2,47.5,30.21,NW,321,5.0,5.0,94,0.00,,,0.00,0,Wunderground v.1.15,2013-05-10 06:10:00,
2013-05-09 23:20:00,49.2,47.5,30.21,North,355,5.0,6.0,94,0.00,,,0.00,0,Wunderground v.1.15,2013-05-10 06:20:00,
2013-05-09 23:35:00,49.2,47.5,30.21,NNW,332,5.0,5.0,94,0.00,,,0.00,0,Wunderground v.1.15,2013-05-10 06:35:00,
2013-05-09 23:40:00,49.2,47.5,30.22,NNW,341,6.0,6.0,94,0.00,,,0.00,0,Wunderground v.1.15,2013-05-10 06:40:00,
2013-05-09 23:50:00,49.2,47.5,30.21,NNW,344,5.0,6.0,94,0.00,,,0.00,0,Wunderground v.1.15,2013-05-10 06:50:00,